createdAt,value
2022-12-14T00:01:22.046Z,100730.34
2022-12-14T00:03:49.048Z,100728.56
2022-12-14T00:06:16.922Z,100727.69
2022-12-14T00:08:43.839Z,100727.69
2022-12-14T00:11:10.759Z,100722.41
2022-12-14T00:13:38.140Z,100722.50
2022-12-14T00:16:10.421Z,100725.97
2022-12-14T00:18:37.004Z,100724.19
2022-12-14T00:21:11.992Z,100717.19
2022-12-14T00:23:40.286Z,100718.94
2022-12-14T00:26:18.015Z,100710.19
2022-12-14T00:28:46.208Z,100709.25
2022-12-14T00:31:12.906Z,100717.19
2022-12-14T00:33:40.325Z,100710.09
2022-12-14T00:36:08.926Z,100711.78
2022-12-14T00:38:36.281Z,100708.34
2022-12-14T00:41:05.210Z,100705.69
2022-12-14T00:43:32.098Z,100696.97
2022-12-14T00:45:58.731Z,100701.38
2022-12-14T00:48:27.062Z,100700.47
2022-12-14T00:50:55.458Z,100688.16
2022-12-14T00:53:23.337Z,100684.63
2022-12-14T00:55:50.874Z,100684.59
2022-12-14T00:58:23.087Z,100682.00
2022-12-14T01:00:59.931Z,100670.59
2022-12-14T01:03:27.401Z,100672.34
2022-12-14T01:05:54.260Z,100660.94
2022-12-14T01:08:21.121Z,100661.91
2022-12-14T01:10:47.618Z,100662.78
2022-12-14T01:13:14.231Z,100657.56
2022-12-14T01:15:40.675Z,100652.38
2022-12-14T01:18:07.243Z,100655.94
2022-12-14T01:20:33.716Z,100664.81
2022-12-14T01:23:00.183Z,100663.13
2022-12-14T01:25:26.691Z,100655.25
2022-12-14T01:27:53.156Z,100661.38
2022-12-14T01:30:21.414Z,100658.78
2022-12-14T01:32:47.976Z,100660.59
2022-12-14T01:35:14.832Z,100649.19
2022-12-14T01:37:41.272Z,100650.97
2022-12-14T01:40:08.651Z,100658.91
2022-12-14T01:42:38.586Z,100660.69
2022-12-14T01:45:06.116Z,100666.88
2022-12-14T01:47:47.436Z,100666.84
2022-12-14T01:50:34.089Z,100666.00
2022-12-14T01:53:06.407Z,100654.59
2022-12-14T01:55:48.675Z,100648.44
2022-12-14T01:58:20.982Z,100652.00
2022-12-14T02:00:48.904Z,100646.84
2022-12-14T02:03:27.256Z,100646.03
2022-12-14T02:06:02.236Z,100637.31
2022-12-14T02:08:29.521Z,100638.22
2022-12-14T02:10:56.615Z,100642.66
2022-12-14T02:13:34.721Z,100630.53
2022-12-14T02:16:01.241Z,100634.03
2022-12-14T02:18:30.293Z,100629.69
2022-12-14T02:21:31.022Z,100635.06
2022-12-14T02:24:15.754Z,100632.53
2022-12-14T02:27:06.638Z,100630.84
2022-12-14T02:29:36.805Z,100631.72
2022-12-14T02:32:20.364Z,100632.66
2022-12-14T02:35:04.100Z,100631.69
2022-12-14T02:37:30.582Z,100626.44
2022-12-14T02:40:08.895Z,100622.97
2022-12-14T02:43:11.432Z,100619.53
2022-12-14T02:45:43.759Z,100617.91
2022-12-14T02:48:18.956Z,100619.81
2022-12-14T02:51:15.309Z,100606.72
2022-12-14T02:53:56.571Z,100610.19
2022-12-14T02:56:31.567Z,100608.41
2022-12-14T02:58:58.193Z,100606.66
2022-12-14T03:01:28.840Z,100603.16
2022-12-14T03:03:55.946Z,100602.38
2022-12-14T03:06:27.713Z,100611.34
2022-12-14T03:08:59.783Z,100602.78
2022-12-14T03:11:44.992Z,100605.50
2022-12-14T03:14:23.487Z,100598.66
2022-12-14T03:16:51.902Z,100587.34
2022-12-14T03:19:24.519Z,100581.31
2022-12-14T03:22:03.439Z,100576.09
2022-12-14T03:24:37.165Z,100575.28
2022-12-14T03:27:16.658Z,100570.94
2022-12-14T03:29:48.999Z,100569.25
2022-12-14T03:32:20.378Z,100568.44
2022-12-14T03:34:55.909Z,100559.72
2022-12-14T03:37:54.483Z,100554.53
2022-12-14T03:40:26.759Z,100548.50
2022-12-14T03:43:11.201Z,100554.78
2022-12-14T03:46:00.567Z,100556.59
2022-12-14T03:48:34.487Z,100558.41
2022-12-14T03:51:11.985Z,100563.72
2022-12-14T03:53:41.399Z,100551.56
2022-12-14T03:56:31.969Z,100551.66
2022-12-14T03:59:05.849Z,100558.75
2022-12-14T04:02:04.025Z,100557.94
2022-12-14T04:04:38.095Z,100551.84
2022-12-14T04:07:19.595Z,100558.03
2022-12-14T04:10:33.679Z,100539.75
2022-12-14T04:13:24.240Z,100538.91
2022-12-14T04:16:33.690Z,100543.34
2022-12-14T04:19:06.296Z,100534.63
2022-12-14T04:21:44.619Z,100540.78
2022-12-14T04:24:41.024Z,100530.31
2022-12-14T04:27:17.849Z,100530.41
2022-12-14T04:29:56.236Z,100527.78
2022-12-14T04:32:44.279Z,100523.47
2022-12-14T04:35:34.512Z,100524.41
2022-12-14T04:38:06.990Z,100526.13
2022-12-14T04:40:42.873Z,100520.03
2022-12-14T04:43:13.652Z,100524.44
2022-12-14T04:45:46.946Z,100516.59
2022-12-14T04:48:24.513Z,100514.88
2022-12-14T04:51:11.467Z,100508.75
2022-12-14T04:53:41.379Z,100511.38
2022-12-14T04:56:20.124Z,100509.63
2022-12-14T04:58:46.917Z,100507.84
2022-12-14T05:01:35.086Z,100506.09
2022-12-14T05:04:08.172Z,100506.09
2022-12-14T05:07:08.505Z,100506.03
2022-12-14T05:09:40.609Z,100496.38
2022-12-14T05:12:18.501Z,100500.75
2022-12-14T05:14:51.471Z,100502.50
2022-12-14T05:17:18.620Z,100504.28
2022-12-14T05:19:50.133Z,100499.03
2022-12-14T05:22:17.824Z,100504.28
2022-12-14T05:24:44.360Z,100491.22
2022-12-14T05:27:10.977Z,100497.31
2022-12-14T05:29:37.406Z,100487.75
2022-12-14T05:32:04.510Z,100495.66
2022-12-14T05:34:31.018Z,100486.91
2022-12-14T05:36:58.079Z,100493.97
2022-12-14T05:39:24.549Z,100485.28
2022-12-14T05:41:51.083Z,100489.66
2022-12-14T05:44:17.527Z,100497.59
2022-12-14T05:46:43.987Z,100498.50
2022-12-14T05:49:10.633Z,100502.91
2022-12-14T05:51:37.026Z,100500.34
2022-12-14T05:54:03.636Z,100491.63
2022-12-14T05:56:30.103Z,100496.00
2022-12-14T05:58:57.036Z,100489.88
2022-12-14T06:01:23.785Z,100488.16
2022-12-14T06:03:53.456Z,100484.69
2022-12-14T06:06:20.259Z,100468.06
2022-12-14T06:08:47.357Z,100464.59
2022-12-14T06:11:19.514Z,100464.59
2022-12-14T06:13:46.536Z,100462.91
2022-12-14T06:16:21.562Z,100470.84
2022-12-14T06:18:50.517Z,100466.53
2022-12-14T06:21:18.987Z,100473.56
2022-12-14T06:23:45.980Z,100468.41
2022-12-14T06:26:14.001Z,100462.38
2022-12-14T06:28:40.661Z,100472.06
2022-12-14T06:31:08.057Z,100470.41
2022-12-14T06:33:35.310Z,100469.53
2022-12-14T06:36:03.182Z,100472.19
2022-12-14T06:38:30.157Z,100469.56
2022-12-14T06:40:56.755Z,100467.88
2022-12-14T06:43:26.805Z,100469.69
2022-12-14T06:45:53.889Z,100471.44
2022-12-14T06:48:20.466Z,100470.56
2022-12-14T06:50:46.895Z,100467.13
2022-12-14T06:53:14.062Z,100473.28
2022-12-14T06:55:40.843Z,100468.94
2022-12-14T06:58:12.642Z,100476.91
2022-12-14T07:00:39.179Z,100472.53
2022-12-14T07:03:05.794Z,100477.81
2022-12-14T07:05:32.362Z,100483.03
2022-12-14T07:07:58.883Z,100491.81
2022-12-14T07:10:25.382Z,100487.47
2022-12-14T07:12:51.924Z,100489.25
2022-12-14T07:15:18.365Z,100489.28
2022-12-14T07:17:44.815Z,100493.69
2022-12-14T07:20:11.927Z,100493.69
2022-12-14T07:22:38.987Z,100489.41
2022-12-14T07:25:05.973Z,100486.78
2022-12-14T07:27:32.805Z,100492.91
2022-12-14T07:29:59.297Z,100492.91
2022-12-14T07:32:25.812Z,100489.44
2022-12-14T07:34:52.488Z,100488.56
2022-12-14T07:37:19.126Z,100487.69
2022-12-14T07:42:51.888Z,100487.72
2022-12-14T07:45:18.660Z,100483.34
2022-12-14T07:47:45.337Z,100492.97
2022-12-14T07:50:12.501Z,100490.38
2022-12-14T07:52:38.976Z,100491.22
2022-12-14T07:55:05.896Z,100481.59
2022-12-14T07:57:34.339Z,100489.47
2022-12-14T08:00:00.898Z,100497.38
2022-12-14T08:02:27.511Z,100491.25
2022-12-14T08:04:54.038Z,100490.38
2022-12-14T08:07:20.603Z,100497.38
2022-12-14T08:09:48.147Z,100493.84
2022-12-14T08:12:15.791Z,100506.06
2022-12-14T08:14:42.428Z,100497.31
2022-12-14T08:17:08.849Z,100492.97
2022-12-14T08:19:35.356Z,100495.56
2022-12-14T08:22:01.832Z,100506.03
2022-12-14T08:24:28.285Z,100508.66
2022-12-14T08:26:54.828Z,100511.28
2022-12-14T08:29:22.292Z,100502.53
2022-12-14T08:31:48.808Z,100509.50
2022-12-14T08:34:22.652Z,100508.59
2022-12-14T08:36:49.580Z,100509.41
2022-12-14T08:39:16.056Z,100517.25
2022-12-14T08:41:42.962Z,100516.28
2022-12-14T08:44:09.591Z,100516.25
2022-12-14T08:46:39.225Z,100517.06
2022-12-14T08:49:05.937Z,100520.50
2022-12-14T08:51:32.641Z,100520.44
2022-12-14T08:53:59.171Z,100514.25
2022-12-14T08:56:27.422Z,100517.69
2022-12-14T08:58:54.317Z,100511.53
2022-12-14T09:01:32.143Z,100511.47
2022-12-14T09:04:05.254Z,100523.63
2022-12-14T09:06:34.682Z,100513.06
2022-12-14T09:09:01.400Z,100521.63
2022-12-14T09:11:27.883Z,100518.81
2022-12-14T09:13:54.998Z,100517.84
2022-12-14T09:16:23.399Z,100516.78
2022-12-14T09:18:50.477Z,100514.03
2022-12-14T09:21:17.925Z,100512.13
2022-12-14T09:23:45.812Z,100508.53
2022-12-14T09:26:15.060Z,100518.97
2022-12-14T09:28:44.868Z,100510.06
2022-12-14T09:31:13.629Z,100523.16
2022-12-14T09:33:40.655Z,100523.75
2022-12-14T09:36:13.600Z,100528.81
2022-12-14T09:38:44.310Z,100509.34
2022-12-14T09:41:35.793Z,100487.44
2022-12-14T09:44:25.077Z,100500.41
2022-12-14T09:46:57.857Z,100502.97
2022-12-14T09:49:33.597Z,100493.25
2022-12-14T09:52:03.213Z,100485.69
2022-12-14T09:54:35.051Z,100494.66
2022-12-14T09:57:08.859Z,100493.97
2022-12-14T09:59:35.817Z,100489.22
2022-12-14T10:02:30.988Z,100495.53
2022-12-14T10:05:18.138Z,100485.59
2022-12-14T10:08:05.575Z,100482.03
2022-12-14T10:10:37.889Z,100473.91
2022-12-14T10:13:40.202Z,100463.78
2022-12-14T10:16:15.903Z,100470.25
2022-12-14T10:19:02.878Z,100475.47
2022-12-14T10:21:42.422Z,100466.66
2022-12-14T10:24:15.741Z,100461.47
2022-12-14T10:26:48.047Z,100460.59
2022-12-14T10:29:27.313Z,100449.94
2022-12-14T10:32:12.350Z,100443.84
2022-12-14T10:34:41.400Z,100440.44
2022-12-14T10:37:27.247Z,100434.75
2022-12-14T10:40:22.100Z,100428.53
2022-12-14T10:42:58.487Z,100434.16
2022-12-14T10:45:40.275Z,100435.34
2022-12-14T10:48:22.420Z,100430.94
2022-12-14T10:51:01.162Z,100440.34
2022-12-14T10:53:40.583Z,100429.19
2022-12-14T10:56:16.487Z,100427.97
2022-12-14T10:58:43.060Z,100424.91
2022-12-14T11:01:14.475Z,100427.59
2022-12-14T11:03:43.562Z,100428.19
2022-12-14T11:06:14.390Z,100428.81
2022-12-14T11:08:49.504Z,100427.00
2022-12-14T11:11:23.897Z,100424.69
2022-12-14T11:13:53.059Z,100429.09
2022-12-14T11:16:36.302Z,100433.97
2022-12-14T11:19:19.431Z,100433.34
2022-12-14T11:21:49.878Z,100434.28
2022-12-14T11:24:28.373Z,100451.66
2022-12-14T11:27:00.653Z,100446.28
2022-12-14T11:29:39.281Z,100439.91
2022-12-14T11:32:06.844Z,100445.88
2022-12-14T11:34:39.058Z,100449.38
2022-12-14T11:37:28.568Z,100456.56
2022-12-14T11:40:05.941Z,100449.97
2022-12-14T11:42:33.464Z,100454.81
2022-12-14T11:45:27.505Z,100446.66
2022-12-14T11:48:15.518Z,100444.13
2022-12-14T11:50:44.518Z,100446.78
2022-12-14T11:53:18.075Z,100441.56
2022-12-14T11:55:59.405Z,100441.56
2022-12-14T11:58:35.632Z,100445.31
2022-12-14T12:01:25.496Z,100439.31
2022-12-14T12:03:57.105Z,100445.25
2022-12-14T12:06:28.993Z,100437.34
2022-12-14T12:08:58.782Z,100439.19
2022-12-14T12:11:29.511Z,100444.50
2022-12-14T12:14:01.791Z,100449.72
2022-12-14T12:16:29.950Z,100442.53
2022-12-14T12:19:05.218Z,100438.09
2022-12-14T12:21:40.066Z,100442.59
2022-12-14T12:24:27.006Z,100445.50
2022-12-14T12:26:57.248Z,100443.81
2022-12-14T12:29:32.666Z,100445.50
2022-12-14T12:32:14.142Z,100450.06
2022-12-14T12:34:52.678Z,100453.06
2022-12-14T12:37:32.812Z,100456.53
2022-12-14T12:40:09.963Z,100453.81
2022-12-14T12:43:18.918Z,100453.00
2022-12-14T12:45:58.327Z,100455.16
2022-12-14T12:48:32.058Z,100457.25
2022-12-14T12:51:07.109Z,100452.09
2022-12-14T12:53:45.238Z,100461.03
2022-12-14T12:56:15.621Z,100462.06
2022-12-14T12:58:50.596Z,100468.50
2022-12-14T13:01:26.087Z,100468.81
2022-12-14T13:03:58.470Z,100465.53
2022-12-14T13:06:30.389Z,100466.50
2022-12-14T13:09:09.747Z,100466.69
2022-12-14T13:11:39.835Z,100461.31
2022-12-14T13:14:30.675Z,100467.50
2022-12-14T13:16:59.605Z,100465.09
2022-12-14T13:19:54.708Z,100463.50
2022-12-14T13:22:33.391Z,100474.22
2022-12-14T13:25:07.808Z,100467.31
2022-12-14T13:27:43.162Z,100466.78
2022-12-14T13:30:12.225Z,100468.72
2022-12-14T13:33:17.193Z,100468.03
2022-12-14T13:35:49.412Z,100461.25
2022-12-14T13:38:47.208Z,100463.84
2022-12-14T13:41:35.339Z,100470.06
2022-12-14T13:44:10.739Z,100479.03
2022-12-14T13:46:37.338Z,100476.50
2022-12-14T13:49:08.701Z,100471.38
2022-12-14T13:51:39.495Z,100468.66
2022-12-14T13:54:17.858Z,100463.38
2022-12-14T13:56:45.427Z,100470.16
2022-12-14T13:59:30.609Z,100465.72
2022-12-14T14:01:59.733Z,100454.53
2022-12-14T14:04:29.374Z,100452.75
2022-12-14T14:07:15.301Z,100464.88
2022-12-14T14:09:54.913Z,100459.72
2022-12-14T14:12:32.850Z,100457.31
2022-12-14T14:15:08.406Z,100461.47
2022-12-14T14:17:42.833Z,100469.84
2022-12-14T14:20:31.001Z,100465.84
2022-12-14T14:23:15.930Z,100473.91
2022-12-14T14:26:30.846Z,100480.41
2022-12-14T14:29:33.098Z,100470.38
2022-12-14T14:32:05.786Z,100479.47
2022-12-14T14:34:39.233Z,100487.59
2022-12-14T14:37:27.504Z,100491.31
2022-12-14T14:40:21.949Z,100497.03
2022-12-14T14:43:07.079Z,100490.97
2022-12-14T14:45:38.872Z,100490.31
2022-12-14T14:48:12.011Z,100497.56
2022-12-14T14:50:42.372Z,100498.63
2022-12-14T14:53:27.520Z,100497.16
2022-12-14T14:56:00.486Z,100498.31
2022-12-14T14:58:34.040Z,100505.44
2022-12-14T15:01:07.210Z,100503.84
2022-12-14T15:03:52.027Z,100509.31
2022-12-14T15:06:24.395Z,100507.75
2022-12-14T15:09:09.222Z,100509.56
2022-12-14T15:11:52.406Z,100513.41
2022-12-14T15:14:31.514Z,100511.84
2022-12-14T15:16:58.445Z,100512.91
2022-12-14T15:19:35.528Z,100513.97
2022-12-14T15:22:07.676Z,100521.13
2022-12-14T15:24:40.232Z,100527.47
2022-12-14T15:27:20.185Z,100528.53
2022-12-14T15:29:49.259Z,100539.25
2022-12-14T15:32:18.274Z,100526.25
2022-12-14T15:34:54.727Z,100533.44
2022-12-14T15:37:36.490Z,100530.06
2022-12-14T15:40:16.410Z,100531.19
2022-12-14T15:42:50.831Z,100538.28
2022-12-14T15:45:23.371Z,100542.81
2022-12-14T15:47:50.685Z,100535.00
2022-12-14T15:50:22.080Z,100532.47
2022-12-14T15:52:51.133Z,100538.75
2022-12-14T15:55:40.535Z,100541.53
2022-12-14T15:58:16.851Z,100539.97
2022-12-14T16:00:47.983Z,100544.47
2022-12-14T16:03:26.160Z,100546.38
2022-12-14T16:05:53.794Z,100549.09
2022-12-14T16:08:21.412Z,100550.06
2022-12-14T16:10:51.270Z,100558.94
2022-12-14T16:13:25.325Z,100557.22
2022-12-14T16:15:52.950Z,100558.22
2022-12-14T16:18:20.516Z,100558.28
2022-12-14T16:20:57.339Z,100559.28
2022-12-14T16:23:39.157Z,100562.84
2022-12-14T16:26:16.029Z,100559.41
2022-12-14T16:28:42.878Z,100562.09
2022-12-14T16:31:21.854Z,100568.31
2022-12-14T16:34:27.383Z,100571.06
2022-12-14T16:39:50.678Z,100566.06
2022-12-14T16:42:25.868Z,100564.34
2022-12-14T16:44:56.100Z,100569.75
2022-12-14T16:47:46.496Z,100568.91
2022-12-14T16:53:23.849Z,100578.72
2022-12-14T16:56:14.153Z,100575.28
2022-12-14T16:58:40.747Z,100575.41
2022-12-14T17:01:09.181Z,100580.69
2022-12-14T17:03:37.723Z,100579.84
2022-12-14T17:06:06.461Z,100575.56
2022-12-14T17:08:33.707Z,100573.84
2022-12-14T17:11:00.419Z,100578.34
2022-12-14T17:13:27.035Z,100580.25
2022-12-14T17:16:06.959Z,100586.47
2022-12-14T17:18:38.996Z,100589.94
2022-12-14T17:21:07.263Z,100581.19
2022-12-14T17:23:38.451Z,100576.84
2022-12-14T17:26:05.277Z,100578.63
2022-12-14T17:28:34.566Z,100584.78
2022-12-14T17:31:02.894Z,100578.72
2022-12-14T17:33:31.502Z,100574.41
2022-12-14T17:35:58.349Z,100580.66
2022-12-14T17:38:24.907Z,100578.06
2022-12-14T17:40:53.728Z,100587.72
2022-12-14T17:43:24.522Z,100582.53
2022-12-14T17:45:51.434Z,100582.56
2022-12-14T17:48:19.132Z,100585.22
2022-12-14T17:50:49.681Z,100586.97
2022-12-14T17:53:20.775Z,100585.25
2022-12-14T17:55:47.514Z,100583.50
2022-12-14T17:58:14.063Z,100593.19
2022-12-14T18:00:59.401Z,100587.06
2022-12-14T18:03:29.565Z,100590.59
2022-12-14T18:05:57.912Z,100588.91
2022-12-14T18:08:25.126Z,100595.91
2022-12-14T18:10:58.470Z,100593.28
2022-12-14T18:13:25.155Z,100602.06
2022-12-14T18:15:52.885Z,100598.56
2022-12-14T18:18:22.571Z,100595.97
2022-12-14T18:20:52.723Z,100608.28
2022-12-14T18:23:21.164Z,100602.22
2022-12-14T18:25:58.926Z,100606.63
2022-12-14T18:28:25.547Z,100605.81
2022-12-14T18:30:58.767Z,100604.06
2022-12-14T18:33:27.245Z,100600.59
2022-12-14T18:35:57.571Z,100602.34
2022-12-14T18:38:24.850Z,100614.69
2022-12-14T18:40:53.745Z,100606.84
2022-12-14T18:43:25.920Z,100602.53
2022-12-14T18:45:53.512Z,100594.66
2022-12-14T18:48:21.218Z,100606.00
2022-12-14T18:50:49.714Z,100606.91
2022-12-14T18:53:20.087Z,100603.47
2022-12-14T18:55:47.800Z,100605.22
2022-12-14T18:58:20.583Z,100610.47
2022-12-14T19:00:48.862Z,100620.13
2022-12-14T19:03:15.512Z,100614.94
2022-12-14T19:05:42.316Z,100609.69
2022-12-14T19:08:10.312Z,100615.91
2022-12-14T19:10:39.946Z,100621.16
2022-12-14T19:13:06.912Z,100612.47
2022-12-14T19:15:34.893Z,100612.41
2022-12-14T19:18:01.646Z,100618.56
2022-12-14T19:20:29.030Z,100632.63
2022-12-14T19:22:55.998Z,100625.66
2022-12-14T19:25:23.656Z,100624.72
2022-12-14T19:30:39.325Z,100635.28
2022-12-14T19:33:05.911Z,100626.50
2022-12-14T19:35:32.367Z,100623.03
2022-12-14T19:37:59.148Z,100629.19
2022-12-14T19:40:26.356Z,100631.81
2022-12-14T19:42:53.074Z,100630.06
2022-12-14T19:45:19.787Z,100643.19
2022-12-14T19:47:46.311Z,100638.84
2022-12-14T19:50:14.638Z,100640.63
2022-12-14T19:52:41.677Z,100644.19
2022-12-14T19:55:08.630Z,100642.50
2022-12-14T19:57:35.082Z,100644.22
2022-12-14T20:00:01.531Z,100650.38
2022-12-14T20:02:37.454Z,100653.03
2022-12-14T20:05:05.192Z,100646.97
2022-12-14T20:07:31.698Z,100657.44
2022-12-14T20:09:58.653Z,100651.38
2022-12-14T20:12:25.129Z,100661.88
2022-12-14T20:14:51.600Z,100663.63
2022-12-14T20:17:20.188Z,100671.50
2022-12-14T20:19:46.675Z,100669.72
2022-12-14T20:22:14.807Z,100667.88
2022-12-14T20:24:42.235Z,100678.28
2022-12-14T20:27:08.766Z,100676.47
2022-12-14T20:29:35.281Z,100682.47
2022-12-14T20:32:02.165Z,100678.88
2022-12-14T20:34:29.035Z,100679.56
2022-12-14T20:36:55.777Z,100680.50
2022-12-14T20:39:22.370Z,100680.50
2022-12-14T20:41:49.062Z,100683.16
2022-12-14T20:44:16.157Z,100686.72
2022-12-14T20:46:45.386Z,100685.00
2022-12-14T20:49:15.012Z,100685.88
2022-12-14T20:51:42.696Z,100692.91
2022-12-14T20:54:13.679Z,100693.75
2022-12-14T20:56:40.783Z,100693.75
2022-12-14T20:59:08.021Z,100693.72
2022-12-14T21:01:38.925Z,100693.69
2022-12-14T21:04:06.486Z,100701.59
2022-12-14T21:06:37.633Z,100703.31
2022-12-14T21:09:11.493Z,100691.94
2022-12-14T21:12:05.786Z,100706.81
2022-12-14T21:14:38.386Z,100703.25
2022-12-14T21:17:05.721Z,100706.66
2022-12-14T21:19:33.570Z,100703.06
2022-12-14T21:22:00.090Z,100700.38
2022-12-14T21:27:19.711Z,100698.47
2022-12-14T21:29:46.950Z,100699.34
2022-12-14T21:32:14.657Z,100703.75
2022-12-14T21:34:42.098Z,100701.19
2022-12-14T21:37:08.770Z,100704.72
2022-12-14T21:39:35.916Z,100694.22
2022-12-14T21:42:15.736Z,100701.25
2022-12-14T21:44:44.698Z,100711.84
2022-12-14T21:47:15.065Z,100708.38
2022-12-14T21:49:43.151Z,100714.53
2022-12-14T21:52:12.727Z,100723.34
2022-12-14T21:54:41.010Z,100707.59
2022-12-14T21:57:26.290Z,100712.91
2022-12-14T21:59:52.706Z,100712.00
2022-12-14T22:02:24.670Z,100718.13
2022-12-14T22:04:55.947Z,100719.06
2022-12-14T22:07:25.184Z,100718.19
2022-12-14T22:09:51.851Z,100718.22
2022-12-14T22:12:19.382Z,100719.97
2022-12-14T22:14:45.830Z,100718.25
2022-12-14T22:17:14.428Z,100722.59
2022-12-14T22:19:40.916Z,100721.75
2022-12-14T22:22:07.521Z,100719.13
2022-12-14T22:24:33.997Z,100726.09
2022-12-14T22:27:00.589Z,100724.38
2022-12-14T22:29:27.821Z,100729.63
2022-12-14T22:31:54.504Z,100727.03
2022-12-14T22:34:23.253Z,100727.06
2022-12-14T22:36:52.585Z,100727.97
2022-12-14T22:39:19.630Z,100734.13
2022-12-14T22:41:46.885Z,100746.31
2022-12-14T22:44:13.558Z,100739.31
2022-12-14T22:46:40.909Z,100754.28
2022-12-14T22:49:08.678Z,100756.03
2022-12-14T22:51:36.048Z,100762.22
2022-12-14T22:54:03.259Z,100764.88
2022-12-14T22:56:37.038Z,100754.41
2022-12-14T22:59:10.300Z,100735.16
2022-12-14T23:01:37.908Z,100749.22
2022-12-14T23:04:07.670Z,100740.44
2022-12-14T23:06:34.100Z,100750.06
2022-12-14T23:09:19.231Z,100757.00
2022-12-14T23:12:08.785Z,100755.28
2022-12-14T23:14:56.287Z,100763.16
2022-12-14T23:17:41.615Z,100756.16
2022-12-14T23:20:27.322Z,100754.44
2022-12-14T23:23:12.562Z,100746.59
2022-12-14T23:25:57.452Z,100760.59
2022-12-14T23:28:42.650Z,100768.53
2022-12-14T23:31:27.728Z,100762.38
2022-12-14T23:34:12.885Z,100759.78
2022-12-14T23:36:57.719Z,100750.19
2022-12-14T23:39:44.019Z,100763.31
2022-12-14T23:42:28.994Z,100758.97
2022-12-14T23:45:14.057Z,100766.00
2022-12-14T23:47:58.980Z,100775.66
2022-12-14T23:50:43.834Z,100792.31
2022-12-14T23:53:29.623Z,100787.97
2022-12-14T23:56:15.035Z,100786.25
2022-12-14T23:58:59.976Z,100784.47
